Time;durP1;ratioP1;P1;durP2;ratioP2;P2;SDS_P1;SDS_P2;PMS_P1;PMS_P2;Temp;Humidity;BMP_temperature;BMP_pressure;BME280_temperature;BME280_humidity;BME280_pressure;Samples;Min_cycle;Max_cycle;Signal;HPM_P1;HPM_P2
2022/12/03 00:00:28;;;;;;;40.00;19.30;;;;;;;-0.82;75.54;101317.42;126865;1287;99101;-83
2022/12/03 00:03:50;;;;;;;199.90;98.20;;;;;;;-0.82;75.58;101317.05;126969;1280;98088;-80
2022/12/03 00:06:53;;;;;;;211.40;89.00;;;;;;;-0.83;75.63;101319.74;126772;1281;99096;-81
2022/12/03 00:09:56;;;;;;;96.90;41.30;;;;;;;-0.88;75.68;101320.76;126677;1293;98007;-81
2022/12/03 00:12:58;;;;;;;51.10;23.30;;;;;;;-0.92;75.63;101319.00;126814;1291;99226;-81
2022/12/03 00:16:01;;;;;;;51.70;23.00;;;;;;;-0.96;75.75;101312.32;126749;1278;98075;-81
2022/12/03 00:19:05;;;;;;;46.80;20.90;;;;;;;-0.98;75.81;101314.33;126558;1287;98409;-84
2022/12/03 00:22:08;;;;;;;49.50;25.20;;;;;;;-0.98;75.78;101312.39;126636;1288;98462;-81
2022/12/03 00:25:10;;;;;;;45.70;22.00;;;;;;;-0.99;75.79;101313.84;126795;1277;98377;-81
2022/12/03 00:28:13;;;;;;;51.30;22.00;;;;;;;-1.02;76.00;101308.85;126662;1279;99161;-81
2022/12/03 00:31:16;;;;;;;49.50;20.60;;;;;;;-1.02;76.10;101304.84;126655;1288;99160;-83
2022/12/03 00:34:18;;;;;;;68.40;30.30;;;;;;;-0.99;75.97;101306.17;126737;1296;97999;-80
2022/12/03 00:37:21;;;;;;;58.30;27.10;;;;;;;-0.94;76.06;101303.89;126656;1288;98010;-81
2022/12/03 00:40:24;;;;;;;47.60;21.00;;;;;;;-0.86;75.89;101303.05;126669;1286;99126;-80
2022/12/03 00:43:26;;;;;;;47.70;20.80;;;;;;;-0.78;75.98;101298.77;126737;1301;98032;-80
2022/12/03 00:46:29;;;;;;;40.50;19.80;;;;;;;-0.73;75.74;101300.34;126673;1280;99186;-81
2022/12/03 00:49:32;;;;;;;48.40;21.80;;;;;;;-0.71;75.64;101302.71;126583;1273;98021;-80
2022/12/03 00:52:34;;;;;;;49.20;21.00;;;;;;;-0.70;75.79;101303.37;126629;1288;99150;-80
2022/12/03 00:55:37;;;;;;;50.10;21.50;;;;;;;-0.69;75.67;101300.38;126622;1296;99159;-79
2022/12/03 00:58:40;;;;;;;49.00;21.70;;;;;;;-0.71;75.67;101300.45;126634;1287;101548;-79
2022/12/03 01:01:42;;;;;;;47.00;21.10;;;;;;;-0.72;75.74;101303.63;126587;1281;98001;-80
2022/12/03 01:04:45;;;;;;;48.30;21.60;;;;;;;-0.75;75.68;101301.13;126785;1281;99126;-80
2022/12/03 01:07:48;;;;;;;52.60;23.70;;;;;;;-0.75;75.82;101304.80;126850;1280;99805;-81
2022/12/03 01:10:50;;;;;;;48.70;21.70;;;;;;;-0.77;75.74;101299.80;126718;1288;111156;-77
2022/12/03 01:13:53;;;;;;;46.30;22.00;;;;;;;-0.78;75.85;101299.84;126699;1281;98774;-80
2022/12/03 01:16:56;;;;;;;48.70;21.90;;;;;;;-0.80;75.89;101298.46;126606;1287;98007;-81
2022/12/03 01:20:00;;;;;;;50.20;23.60;;;;;;;-0.82;75.85;101298.36;126716;1287;99108;-81
2022/12/03 01:23:03;;;;;;;49.20;22.30;;;;;;;-0.84;75.81;101303.35;126887;1287;127188;-80
2022/12/03 01:26:06;;;;;;;62.70;25.10;;;;;;;-0.86;76.17;101296.59;126732;1280;99104;-79
2022/12/03 01:29:08;;;;;;;59.20;24.20;;;;;;;-0.85;76.03;101293.60;126685;1287;99068;-81
2022/12/03 01:32:18;;;;;;;56.50;23.40;;;;;;;-0.84;75.89;101293.02;126591;1281;99094;-80
2022/12/03 01:35:21;;;;;;;53.60;22.70;;;;;;;-0.79;75.84;101292.86;126822;1288;111263;-81
2022/12/03 01:38:23;;;;;;;55.50;23.30;;;;;;;-0.71;76.07;101293.29;126625;1288;99057;-79
2022/12/03 01:41:27;;;;;;;53.40;23.00;;;;;;;-0.63;76.09;101294.21;126631;1274;98510;-81
2022/12/03 01:44:31;;;;;;;69.00;30.00;;;;;;;-0.59;75.77;101294.95;126593;1280;99238;-80
2022/12/03 01:47:37;;;;;;;66.00;30.20;;;;;;;-0.57;75.84;101291.71;126708;1278;111260;-81
2022/12/03 01:50:39;;;;;;;61.40;26.80;;;;;;;-0.56;75.91;101292.55;126820;1280;111216;-82
2022/12/03 01:53:44;;;;;;;53.60;24.40;;;;;;;-0.57;75.69;101292.27;126737;1281;98026;-80
2022/12/03 01:56:48;;;;;;;58.60;25.90;;;;;;;-0.60;75.76;101289.72;126808;1288;111322;-81
2022/12/03 01:59:52;;;;;;;53.80;22.60;;;;;;;-0.61;75.85;101292.23;126738;1280;111168;-80
2022/12/03 02:02:57;;;;;;;53.10;22.50;;;;;;;-0.64;75.85;101294.23;126713;1297;111090;-75
2022/12/03 02:06:00;;;;;;;51.90;23.50;;;;;;;-0.64;75.71;101295.83;126605;1280;111152;-78
2022/12/03 02:09:07;;;;;;;51.20;22.70;;;;;;;-0.66;75.78;101302.90;126683;1280;99026;-80
2022/12/03 02:12:10;;;;;;;51.60;24.20;;;;;;;-0.69;75.72;101301.41;126824;1294;111250;-78
2022/12/03 02:15:13;;;;;;;54.30;24.10;;;;;;;-0.72;75.84;101294.20;126645;1287;111193;-80
2022/12/03 02:18:17;;;;;;;55.10;24.50;;;;;;;-0.74;75.95;101292.16;126716;1280;111165;-79
2022/12/03 02:21:27;;;;;;;56.40;24.40;;;;;;;-0.75;75.84;101291.32;126676;1288;111205;-79
2022/12/03 02:24:36;;;;;;;62.10;24.80;;;;;;;-0.75;75.84;101289.94;126861;1288;111209;-80
2022/12/03 02:27:40;;;;;;;55.50;24.20;;;;;;;-0.74;75.98;101287.45;126737;1296;111170;-79
2022/12/03 02:30:42;;;;;;;53.30;22.70;;;;;;;-0.71;75.94;101284.38;126598;1287;110256;-81
2022/12/03 02:33:45;;;;;;;46.90;21.30;;;;;;;-0.68;75.85;101282.51;126761;1281;98073;-80
2022/12/03 02:36:48;;;;;;;48.00;22.80;;;;;;;-0.63;75.99;101279.37;126694;1273;98752;-78
2022/12/03 02:39:53;;;;;;;49.80;22.10;;;;;;;-0.59;75.92;101283.77;126835;1287;97981;-81
2022/12/03 02:43:00;;;;;;;55.80;25.10;;;;;;;-0.59;75.87;101279.56;126745;1279;111274;-78
2022/12/03 02:46:06;;;;;;;57.50;25.00;;;;;;;-0.60;75.74;101282.36;126848;1282;111243;-80
2022/12/03 02:49:08;;;;;;;49.20;22.90;;;;;;;-0.59;75.96;101276.78;126773;1294;111321;-81
2022/12/03 02:52:11;;;;;;;49.50;22.50;;;;;;;-0.60;75.94;101273.14;126706;1281;98017;-78
2022/12/03 02:55:16;;;;;;;48.50;23.70;;;;;;;-0.63;75.83;101271.14;126764;1281;97975;-80
2022/12/03 02:58:20;;;;;;;44.00;21.30;;;;;;;-0.66;75.84;101272.98;126861;1278;111172;-79
2022/12/03 03:01:22;;;;;;;53.10;24.30;;;;;;;-0.68;75.87;101274.63;126697;1296;111035;-80
2022/12/03 03:04:25;;;;;;;48.70;23.10;;;;;;;-0.69;75.89;101270.17;126763;1279;97985;-78
2022/12/03 03:07:28;;;;;;;50.30;22.50;;;;;;;-0.71;75.99;101269.53;126566;1288;98641;-80
2022/12/03 03:10:33;;;;;;;50.80;23.50;;;;;;;-0.71;75.86;101266.55;126572;1280;98064;-79
2022/12/03 03:13:37;;;;;;;53.10;23.60;;;;;;;-0.73;75.94;101266.80;126715;1296;111106;-80
2022/12/03 03:16:40;;;;;;;53.60;23.60;;;;;;;-0.73;76.11;101265.05;126698;1293;110986;-79
2022/12/03 03:19:42;;;;;;;52.40;23.50;;;;;;;-0.69;76.12;101263.15;126739;1273;98039;-81
2022/12/03 03:22:45;;;;;;;48.90;20.50;;;;;;;-0.61;75.94;101264.96;126713;1288;98755;-80
2022/12/03 03:25:53;;;;;;;46.20;20.90;;;;;;;-0.53;76.03;101267.99;126643;1286;98403;-82
2022/12/03 03:28:59;;;;;;;48.80;22.20;;;;;;;-0.47;76.00;101267.21;126647;1288;111304;-82
2022/12/03 03:32:03;;;;;;;47.00;21.60;;;;;;;-0.42;75.87;101266.66;126753;1281;110176;-80
2022/12/03 03:35:08;;;;;;;47.40;22.30;;;;;;;-0.38;75.78;101273.01;126794;1280;110203;-80
2022/12/03 03:38:11;;;;;;;45.30;22.00;;;;;;;-0.38;75.62;101270.92;126668;1294;110339;-79
2022/12/03 03:41:15;;;;;;;46.10;23.00;;;;;;;-0.38;75.93;101269.70;126788;1288;98000;-80
2022/12/03 03:44:17;;;;;;;45.30;21.80;;;;;;;-0.40;75.65;101266.09;126776;1294;110227;-78
2022/12/03 03:47:22;;;;;;;47.30;23.20;;;;;;;-0.43;75.84;101261.67;126715;1273;98191;-80
2022/12/03 03:50:27;;;;;;;48.90;22.90;;;;;;;-0.45;75.91;101254.76;126782;1288;111021;-80
2022/12/03 03:53:30;;;;;;;54.20;23.80;;;;;;;-0.47;75.93;101254.48;126737;1280;111169;-80
2022/12/03 03:56:34;;;;;;;49.50;23.00;;;;;;;-0.49;75.81;101253.83;126690;1274;97989;-80
2022/12/03 03:59:37;;;;;;;50.50;24.30;;;;;;;-0.51;76.01;101253.55;126786;1286;111207;-82
2022/12/03 04:02:40;;;;;;;50.30;22.70;;;;;;;-0.54;75.96;101255.27;126969;1281;98781;-80
2022/12/03 04:05:43;;;;;;;54.10;25.50;;;;;;;-0.56;75.86;101258.82;126642;1288;111040;-79
2022/12/03 04:08:46;;;;;;;51.50;24.00;;;;;;;-0.60;75.92;101258.45;126677;1281;99117;-83
2022/12/03 04:15:10;;;;;;;52.00;23.00;;;;;;;-0.62;76.21;101258.36;126797;1294;111307;-79
2022/12/03 04:38:17;;;;;;;52.00;24.70;;;;;;;-0.38;76.02;101237.54;126607;1281;111114;-78
2022/12/03 04:41:20;;;;;;;52.00;24.20;;;;;;;-0.39;76.03;101236.51;126783;1280;98782;-80
2022/12/03 04:44:35;;;;;;;49.90;23.40;;;;;;;-0.41;75.82;101233.79;126980;1282;97984;-80
2022/12/03 04:47:37;;;;;;;48.10;22.50;;;;;;;-0.46;75.84;101229.77;126991;1281;111081;-77
2022/12/03 04:50:40;;;;;;;50.60;23.60;;;;;;;-0.51;76.02;101224.39;126856;1281;98492;-81
2022/12/03 04:53:43;;;;;;;47.40;22.40;;;;;;;-0.52;75.86;101222.88;126882;1272;99170;-78
2022/12/03 04:56:45;;;;;;;50.60;23.90;;;;;;;-0.56;75.98;101220.03;126958;1283;98359;-80
2022/12/03 04:59:48;;;;;;;48.30;22.80;;;;;;;-0.59;76.12;101223.48;126924;1288;99116;-79
2022/12/03 05:02:51;;;;;;;54.70;24.30;;;;;;;-0.61;76.32;101226.48;126778;1263;101498;-80
2022/12/03 05:05:54;;;;;;;53.80;24.70;;;;;;;-0.60;76.31;101227.19;126782;1281;97988;-79
2022/12/03 05:08:57;;;;;;;59.60;25.50;;;;;;;-0.61;76.23;101231.55;126548;1281;97973;-80
2022/12/03 05:12:00;;;;;;;54.30;24.60;;;;;;;-0.60;76.31;101231.38;126721;1281;99150;-77
2022/12/03 05:15:04;;;;;;;55.10;23.60;;;;;;;-0.57;76.19;101232.30;126755;1267;98091;-78
2022/12/03 05:18:07;;;;;;;49.20;21.90;;;;;;;-0.50;76.17;101226.27;126677;1280;98688;-77
2022/12/03 05:21:10;;;;;;;54.30;22.80;;;;;;;-0.42;76.30;101225.10;126631;1287;99256;-77
2022/12/03 05:24:12;;;;;;;53.80;23.90;;;;;;;-0.35;76.23;101226.58;126598;1288;99072;-78
2022/12/03 05:27:15;;;;;;;52.20;24.20;;;;;;;-0.31;76.12;101226.61;126691;1291;98083;-80
2022/12/03 05:30:18;;;;;;;56.00;23.30;;;;;;;-0.29;76.20;101225.98;126635;1279;99142;-82
2022/12/03 05:33:21;;;;;;;53.70;23.80;;;;;;;-0.27;76.15;101230.29;126732;1288;98432;-79
2022/12/03 05:36:24;;;;;;;55.60;24.90;;;;;;;-0.27;76.24;101229.60;126635;1279;98776;-78
2022/12/03 05:39:27;;;;;;;50.80;24.60;;;;;;;-0.29;76.12;101232.27;126660;1274;99659;-78
2022/12/03 05:45:50;;;;;;;67.00;30.80;;;;;;;-0.30;76.35;101234.27;126782;1288;111185;-81
2022/12/03 05:48:53;;;;;;;82.90;36.30;;;;;;;-0.32;76.60;101232.77;126748;1280;99122;-79
2022/12/03 05:51:56;;;;;;;60.70;28.10;;;;;;;-0.32;76.54;101234.86;126566;1280;98100;-79
2022/12/03 05:54:58;;;;;;;58.60;25.80;;;;;;;-0.32;76.52;101229.59;126695;1274;99150;-79
2022/12/03 05:58:01;;;;;;;61.90;27.30;;;;;;;-0.32;76.53;101224.39;126706;1279;97984;-76
2022/12/03 06:01:04;;;;;;;59.10;25.70;;;;;;;-0.34;76.62;101223.55;126688;1274;99097;-82
2022/12/03 06:04:07;;;;;;;89.80;33.40;;;;;;;-0.34;76.70;101227.43;126705;1281;99539;-79
2022/12/03 06:07:09;;;;;;;146.90;45.20;;;;;;;-0.36;76.66;101226.26;126649;1278;99143;-79
2022/12/03 06:10:16;;;;;;;120.20;39.40;;;;;;;-0.35;76.70;101230.77;126661;1288;98024;-81
2022/12/03 06:13:19;;;;;;;75.50;28.90;;;;;;;-0.28;76.85;101230.52;126685;1288;111127;-79
2022/12/03 06:16:22;;;;;;;67.90;26.80;;;;;;;-0.20;76.83;101232.11;126853;1274;98123;-81
2022/12/03 06:19:24;;;;;;;63.50;26.00;;;;;;;-0.14;76.75;101229.09;126781;1270;98075;-80
2022/12/03 06:22:27;;;;;;;61.70;26.70;;;;;;;-0.08;76.91;101228.15;126883;1288;99164;-81
2022/12/03 06:25:30;;;;;;;50.70;24.40;;;;;;;-0.05;76.74;101229.23;126646;1288;98749;-78
2022/12/03 06:28:32;;;;;;;52.90;25.40;;;;;;;-0.04;76.68;101226.94;126658;1287;98147;-81
2022/12/03 06:31:35;;;;;;;54.20;24.80;;;;;;;-0.07;76.57;101230.91;126771;1283;99171;-82
2022/12/03 06:34:38;;;;;;;52.90;25.10;;;;;;;-0.10;76.82;101231.52;126900;1287;98007;-79
2022/12/03 06:37:40;;;;;;;60.50;28.20;;;;;;;-0.12;76.84;101230.20;126659;1286;107599;-80
2022/12/03 06:40:43;;;;;;;57.40;26.20;;;;;;;-0.14;76.87;101230.13;126744;1267;99168;-80
2022/12/03 06:43:46;;;;;;;61.00;27.10;;;;;;;-0.16;76.90;101229.86;126663;1288;98067;-79
2022/12/03 06:46:49;;;;;;;59.70;26.80;;;;;;;-0.18;76.88;101235.88;126718;1281;99046;-80
2022/12/03 06:49:51;;;;;;;65.00;29.70;;;;;;;-0.20;76.90;101240.14;126709;1281;98686;-81
2022/12/03 06:52:54;;;;;;;57.60;26.60;;;;;;;-0.20;76.96;101238.74;126605;1287;98076;-81
2022/12/03 06:55:57;;;;;;;74.10;29.80;;;;;;;-0.23;77.06;101241.31;126688;1278;99203;-80
2022/12/03 06:58:59;;;;;;;71.40;30.50;;;;;;;-0.23;77.07;101241.31;126643;1274;99091;-81
2022/12/03 07:02:02;;;;;;;75.70;32.30;;;;;;;-0.20;77.16;101245.20;126729;1278;98225;-79
2022/12/03 07:05:06;;;;;;;63.60;28.00;;;;;;;-0.10;77.22;101238.55;126843;1287;98013;-80
2022/12/03 07:08:08;;;;;;;59.50;28.20;;;;;;;-0.01;77.04;101239.40;126844;1280;97994;-79
2022/12/03 07:14:28;;;;;;;72.60;32.90;;;;;;;0.12;77.00;101241.00;126702;1288;98087;-78
2022/12/03 07:17:31;;;;;;;76.90;33.70;;;;;;;0.16;77.07;101245.02;126612;1266;99143;-77
2022/12/03 07:20:33;;;;;;;67.10;31.60;;;;;;;0.21;76.94;101246.39;127785;1278;98075;-74
2022/12/03 07:23:36;;;;;;;72.10;34.10;;;;;;;0.21;76.80;101243.23;126584;1293;98993;-73
2022/12/03 07:26:39;;;;;;;72.30;33.20;;;;;;;0.21;76.79;101240.27;126694;1264;98355;-74
2022/12/03 07:29:41;;;;;;;71.00;32.00;;;;;;;0.17;76.94;101235.36;126746;1286;99154;-74
2022/12/03 07:32:44;;;;;;;69.50;32.20;;;;;;;0.14;76.98;101233.20;126674;1290;97998;-74
2022/12/03 07:35:47;;;;;;;68.60;31.40;;;;;;;0.13;76.92;101231.14;126664;1274;99067;-76
2022/12/03 07:38:50;;;;;;;61.20;28.70;;;;;;;0.14;76.90;101224.12;126745;1294;97995;-78
2022/12/03 07:41:52;;;;;;;73.90;33.50;;;;;;;0.13;76.92;101228.34;127339;1288;99138;-77
2022/12/03 07:44:55;;;;;;;58.90;28.10;;;;;;;0.12;76.99;101221.41;126771;1294;97999;-78
2022/12/03 07:47:58;;;;;;;56.10;25.90;;;;;;;0.11;76.96;101217.06;126897;1274;99163;-78
2022/12/03 07:51:00;;;;;;;64.40;28.10;;;;;;;0.12;77.14;101217.04;126791;1288;98022;-76
2022/12/03 07:54:03;;;;;;;64.60;28.30;;;;;;;0.13;77.11;101218.90;126759;1281;98827;-77
2022/12/03 07:57:06;;;;;;;56.40;25.70;;;;;;;0.17;77.08;101219.78;126963;1288;98110;-77
2022/12/03 08:00:12;;;;;;;61.50;27.60;;;;;;;0.24;77.15;101215.98;126950;1270;99156;-79
2022/12/03 08:03:14;;;;;;;56.60;28.20;;;;;;;0.31;77.22;101215.17;126918;1288;98058;-77
2022/12/03 08:06:17;;;;;;;55.20;27.10;;;;;;;0.39;77.11;101216.62;126624;1286;99030;-77
2022/12/03 08:09:20;;;;;;;56.20;28.90;;;;;;;0.44;77.07;101219.73;126843;1281;98774;-77
2022/12/03 08:12:38;;;;;;;58.00;27.60;;;;;;;0.46;76.85;101222.10;126975;1281;98897;-76
2022/12/03 08:15:42;;;;;;;60.40;28.80;;;;;;;0.46;76.87;101222.98;127029;1288;98439;-76
2022/12/03 08:18:46;;;;;;;66.90;31.70;;;;;;;0.48;76.93;101220.44;126951;1282;98747;-76
2022/12/03 08:21:49;;;;;;;62.40;32.00;;;;;;;0.53;77.04;101219.17;126961;1274;97983;-75
2022/12/03 08:24:52;;;;;;;62.60;31.20;;;;;;;0.56;76.94;101216.61;127023;1281;99021;-74
2022/12/03 08:28:06;;;;;;;59.40;31.60;;;;;;;0.57;76.90;101215.14;126990;1288;98961;-75
2022/12/03 08:31:18;;;;;;;55.80;27.20;;;;;;;0.61;77.00;101217.09;127035;1281;99087;-77
2022/12/03 08:34:23;;;;;;;64.20;32.20;;;;;;;0.64;76.97;101221.84;127066;1278;98004;-77
2022/12/03 08:37:25;;;;;;;50.50;26.80;;;;;;;0.69;76.96;101219.02;126855;1294;98025;-76
2022/12/03 08:40:33;;;;;;;65.40;29.10;;;;;;;0.73;76.94;101219.38;126620;1288;99166;-77
2022/12/03 08:43:40;;;;;;;55.30;26.00;;;;;;;0.77;76.99;101218.14;126700;1287;98074;-77
2022/12/03 08:46:44;;;;;;;45.10;22.10;;;;;;;0.86;77.04;101216.17;126580;1280;98744;-77
2022/12/03 08:49:53;;;;;;;51.40;26.90;;;;;;;0.94;77.03;101215.30;126675;1279;98012;-77
2022/12/03 08:53:08;;;;;;;57.00;27.50;;;;;;;1.04;76.76;101216.09;126852;1288;98079;-77
2022/12/03 08:56:21;;;;;;;63.30;30.10;;;;;;;1.10;76.91;101214.73;126958;1277;98003;-77
2022/12/03 08:59:30;;;;;;;56.20;28.70;;;;;;;1.13;76.95;101216.02;126775;1281;98742;-77
2022/12/03 09:02:34;;;;;;;58.40;28.60;;;;;;;1.20;76.93;101213.09;126837;1289;98064;-77
2022/12/03 09:05:37;;;;;;;61.30;29.70;;;;;;;1.27;76.73;101209.81;126684;1288;99073;-80
2022/12/03 09:08:39;;;;;;;62.60;29.50;;;;;;;1.35;76.96;101212.79;126815;1280;97980;-79
2022/12/03 09:11:43;;;;;;;56.90;28.10;;;;;;;1.38;76.92;101220.16;127389;1278;98176;-81
2022/12/03 09:14:45;;;;;;;57.40;29.10;;;;;;;1.38;76.87;101218.58;126988;1287;98739;-83
2022/12/03 09:17:48;;;;;;;71.30;36.60;;;;;;;1.40;76.66;101212.91;126854;1290;98006;-84
2022/12/03 09:20:51;;;;;;;64.70;32.60;;;;;;;1.42;76.81;101210.71;127055;1281;99153;-80
2022/12/03 09:23:54;;;;;;;60.50;31.30;;;;;;;1.40;76.75;101214.64;127026;1274;98894;-77
2022/12/03 09:26:56;;;;;;;53.30;27.30;;;;;;;1.44;76.79;101210.08;126954;1275;98052;-82
2022/12/03 09:29:59;;;;;;;54.10;28.70;;;;;;;1.47;76.70;101207.29;126999;1279;99122;-79
2022/12/03 09:33:02;;;;;;;58.10;28.60;;;;;;;1.53;76.83;101208.44;126764;1288;99170;-78
2022/12/03 09:36:05;;;;;;;58.30;29.20;;;;;;;1.62;76.69;101205.20;126839;1281;98784;-77
2022/12/03 09:39:08;;;;;;;49.10;23.80;;;;;;;1.74;76.79;101196.20;126639;1282;97981;-82
2022/12/03 09:42:11;;;;;;;64.50;31.90;;;;;;;1.86;76.76;101190.17;126912;1298;98091;-81
2022/12/03 09:45:15;;;;;;;56.60;31.00;;;;;;;1.95;76.36;101188.16;126748;1295;97980;-84
2022/12/03 09:48:19;;;;;;;77.00;40.20;;;;;;;1.98;76.23;101194.73;126920;1278;98017;-79
2022/12/03 09:51:23;;;;;;;107.40;55.40;;;;;;;1.96;76.27;101194.81;126805;1280;98795;-78
2022/12/03 09:54:28;;;;;;;73.80;37.90;;;;;;;1.99;76.51;101196.45;126869;1274;99144;-79
2022/12/03 09:57:31;;;;;;;56.30;27.30;;;;;;;1.94;76.50;101198.56;126766;1280;98780;-76
2022/12/03 10:00:33;;;;;;;61.30;31.90;;;;;;;1.91;76.46;101192.05;126904;1282;98002;-76
2022/12/03 10:03:42;;;;;;;67.20;33.10;;;;;;;1.91;76.57;101189.77;126900;1281;98425;-77
2022/12/03 10:06:45;;;;;;;53.70;28.70;;;;;;;1.89;76.29;101182.69;126705;1277;98106;-79
2022/12/03 10:09:48;;;;;;;55.10;28.10;;;;;;;1.87;76.38;101174.86;126707;1288;99058;-80
2022/12/03 10:12:51;;;;;;;50.90;26.40;;;;;;;1.85;76.41;101167.80;126841;1285;98086;-81
2022/12/03 10:15:57;;;;;;;51.90;26.10;;;;;;;1.85;76.23;101165.54;126833;1288;98739;-83
2022/12/03 10:19:00;;;;;;;50.20;26.80;;;;;;;1.85;76.59;101164.11;126977;1288;98012;-77
2022/12/03 10:22:03;;;;;;;57.60;30.50;;;;;;;1.84;76.48;101164.53;126850;1280;99055;-79
2022/12/03 10:25:10;;;;;;;52.90;28.20;;;;;;;1.85;76.44;101165.19;127492;1294;98483;-78
2022/12/03 10:28:25;;;;;;;54.70;28.80;;;;;;;1.86;76.31;101166.72;127521;1280;97940;-78
2022/12/03 10:31:35;;;;;;;75.70;35.50;;;;;;;1.88;76.37;101166.05;126702;1288;99160;-79
2022/12/03 10:34:40;;;;;;;111.10;49.40;;;;;;;1.91;76.50;101155.91;126672;1280;99140;-79
2022/12/03 10:37:58;;;;;;;97.90;45.80;;;;;;;1.97;76.51;101150.74;126605;1282;99096;-79
2022/12/03 10:41:20;;;;;;;64.40;34.10;;;;;;;2.04;76.31;101148.45;126740;1286;98010;-79
2022/12/03 10:44:24;;;;;;;95.90;47.40;;;;;;;2.11;76.22;101151.98;126816;1274;98003;-78
2022/12/03 10:47:27;;;;;;;89.20;43.20;;;;;;;2.22;76.38;101158.77;126746;1280;97976;-78
2022/12/03 10:50:30;;;;;;;71.80;35.80;;;;;;;2.29;76.12;101152.80;126750;1281;98747;-79
2022/12/03 10:53:35;;;;;;;68.90;35.40;;;;;;;2.37;75.78;101151.86;126650;1289;98010;-78
2022/12/03 10:56:38;;;;;;;94.50;43.00;;;;;;;2.38;75.89;101152.70;126797;1288;99052;-78
2022/12/03 10:59:42;;;;;;;74.10;38.20;;;;;;;2.37;75.87;101153.11;126677;1281;98022;-78
2022/12/03 11:02:45;;;;;;;89.40;44.40;;;;;;;2.36;76.01;101148.92;126739;1281;98035;-79
2022/12/03 11:05:48;;;;;;;84.00;45.30;;;;;;;2.33;75.96;101151.36;126705;1280;97978;-79
2022/12/03 11:08:55;;;;;;;72.60;41.10;;;;;;;2.30;75.92;101153.25;126863;1280;97968;-79
2022/12/03 11:12:04;;;;;;;74.70;42.60;;;;;;;2.30;76.04;101151.35;126915;1278;97961;-78
2022/12/03 11:15:14;;;;;;;84.90;42.70;;;;;;;2.26;76.22;101156.63;126648;1280;98200;-78
2022/12/03 11:18:50;;;;;;;74.80;37.00;;;;;;;2.23;76.07;101155.91;126651;1289;98005;-78
2022/12/03 11:22:23;;;;;;;53.30;29.40;;;;;;;2.20;76.09;101149.58;126652;1280;98423;-79
2022/12/03 11:25:55;;;;;;;67.10;34.40;;;;;;;2.18;76.03;101145.29;126931;1293;98650;-78
2022/12/03 11:28:59;;;;;;;76.20;37.00;;;;;;;2.13;76.14;101148.54;126998;1288;98514;-79
2022/12/03 11:32:01;;;;;;;104.80;47.40;;;;;;;2.08;76.41;101151.05;126784;1294;97970;-79
2022/12/03 11:35:10;;;;;;;63.50;30.50;;;;;;;2.10;76.50;101153.08;126756;1288;99136;-78
2022/12/03 11:38:46;;;;;;;99.60;51.20;;;;;;;2.18;76.45;101146.34;126710;1282;98057;-79
2022/12/03 11:42:36;;;;;;;113.80;67.80;;;;;;;2.30;76.30;101142.94;126733;1294;98002;-79
2022/12/03 11:45:39;;;;;;;120.80;74.00;;;;;;;2.37;76.20;101142.94;126688;1288;99133;-80
2022/12/03 11:48:45;;;;;;;79.30;42.90;;;;;;;2.38;76.03;101140.25;126711;1288;97986;-79
2022/12/03 11:51:48;;;;;;;63.30;35.20;;;;;;;2.37;76.37;101138.52;126840;1280;98764;-79
2022/12/03 11:54:54;;;;;;;62.00;32.80;;;;;;;2.38;76.15;101145.69;126729;1285;97992;-80
2022/12/03 11:58:02;;;;;;;62.40;32.80;;;;;;;2.40;76.27;101143.86;126959;1281;98910;-79
2022/12/03 12:01:07;;;;;;;64.20;33.30;;;;;;;2.34;76.24;101144.48;126749;1287;98563;-79
2022/12/03 12:04:29;;;;;;;66.40;34.90;;;;;;;2.30;76.41;101141.89;126868;1280;99031;-79
2022/12/03 12:07:34;;;;;;;70.90;33.80;;;;;;;2.27;76.38;101140.98;126785;1281;98742;-79
2022/12/03 12:10:44;;;;;;;72.50;35.90;;;;;;;2.26;76.49;101135.91;126868;1287;98003;-78
2022/12/03 12:13:54;;;;;;;74.80;36.30;;;;;;;2.27;76.32;101131.34;126848;1280;97981;-78
2022/12/03 12:17:01;;;;;;;76.00;36.90;;;;;;;2.26;76.53;101128.36;126965;1279;98873;-78
2022/12/03 12:20:23;;;;;;;74.80;35.50;;;;;;;2.28;76.43;101125.83;126722;1288;98073;-78
2022/12/03 12:23:29;;;;;;;61.90;31.10;;;;;;;2.32;76.35;101124.21;126824;1281;98013;-78
2022/12/03 12:26:31;;;;;;;61.60;29.80;;;;;;;2.36;76.22;101117.17;126649;1281;98061;-78
2022/12/03 12:29:35;;;;;;;59.50;29.50;;;;;;;2.39;76.27;101118.94;126631;1277;98073;-77
2022/12/03 12:32:44;;;;;;;60.00;30.70;;;;;;;2.42;76.13;101118.45;126725;1288;98353;-78
2022/12/03 12:35:47;;;;;;;69.00;32.70;;;;;;;2.40;76.08;101116.09;126740;1281;98567;-78
2022/12/03 12:38:49;;;;;;;61.60;31.70;;;;;;;2.36;76.35;101117.51;126753;1284;98009;-78
2022/12/03 12:41:53;;;;;;;60.20;30.20;;;;;;;2.32;76.03;101118.91;126676;1281;98009;-78
2022/12/03 12:45:00;;;;;;;59.70;30.50;;;;;;;2.29;76.31;101115.55;126620;1288;98095;-78
2022/12/03 12:48:14;;;;;;;63.70;31.60;;;;;;;2.26;76.19;101112.75;126877;1287;98237;-78
2022/12/03 12:51:18;;;;;;;68.50;32.00;;;;;;;2.21;76.37;101115.30;126772;1294;99141;-79
2022/12/03 12:54:21;;;;;;;67.10;33.10;;;;;;;2.18;76.38;101124.43;126735;1288;98011;-78
2022/12/03 12:57:23;;;;;;;155.00;56.50;;;;;;;2.15;76.47;101127.70;126712;1288;99033;-78
2022/12/03 13:00:26;;;;;;;250.20;83.40;;;;;;;2.11;76.34;101127.91;126720;1277;99244;-82
2022/12/03 13:03:33;;;;;;;126.20;47.10;;;;;;;2.07;76.50;101127.23;126697;1286;99154;-79
2022/12/03 13:06:36;;;;;;;76.60;34.10;;;;;;;2.01;76.71;101131.06;126588;1290;98747;-79
2022/12/03 13:09:39;;;;;;;205.70;57.80;;;;;;;2.02;76.82;101127.14;126701;1287;98078;-78
2022/12/03 13:12:43;;;;;;;195.70;60.70;;;;;;;2.07;76.70;101127.23;126876;1283;97998;-78
2022/12/03 13:15:56;;;;;;;120.00;43.80;;;;;;;2.11;76.71;101126.33;126769;1279;97974;-78
2022/12/03 13:19:00;;;;;;;121.60;47.20;;;;;;;2.15;76.76;101129.11;126966;1277;98005;-78
2022/12/03 13:22:12;;;;;;;88.20;38.20;;;;;;;2.18;76.87;101132.31;126835;1288;98430;-78
2022/12/03 13:25:32;;;;;;;141.80;53.20;;;;;;;2.19;76.84;101130.64;126752;1282;99076;-76
2022/12/03 13:28:35;;;;;;;76.60;34.80;;;;;;;2.21;76.80;101128.66;126756;1281;98653;-80
2022/12/03 13:31:38;;;;;;;94.70;41.20;;;;;;;2.20;76.81;101124.48;126618;1281;97997;-77
2022/12/03 13:34:41;;;;;;;91.60;42.10;;;;;;;2.18;76.86;101127.56;126686;1294;98639;-77
2022/12/03 13:37:44;;;;;;;96.70;43.00;;;;;;;2.17;76.82;101128.34;126691;1287;98114;-78
2022/12/03 13:40:56;;;;;;;104.70;45.50;;;;;;;2.13;76.98;101131.46;126753;1281;98003;-77
2022/12/03 13:43:59;;;;;;;164.00;63.30;;;;;;;2.10;76.99;101131.99;126677;1288;97993;-76
2022/12/03 13:47:12;;;;;;;121.20;49.20;;;;;;;2.06;77.02;101127.98;126699;1282;97980;-82
2022/12/03 13:50:30;;;;;;;122.80;52.40;;;;;;;2.04;77.13;101125.82;126853;1281;98740;-81
2022/12/03 13:53:37;;;;;;;182.20;63.50;;;;;;;2.06;77.33;101132.90;127021;1278;98956;-80
2022/12/03 13:56:40;;;;;;;108.30;46.20;;;;;;;2.08;77.29;101132.63;127146;1278;98049;-78
2022/12/03 13:59:42;;;;;;;110.70;47.50;;;;;;;2.10;77.38;101133.08;126979;1280;98761;-77
2022/12/03 14:02:45;;;;;;;118.30;52.10;;;;;;;2.12;77.34;101131.73;126933;1279;98066;-76
2022/12/03 14:05:48;;;;;;;135.20;58.80;;;;;;;2.15;77.57;101132.29;126980;1281;99171;-76
2022/12/03 14:08:51;;;;;;;121.70;54.70;;;;;;;2.14;77.37;101131.41;126929;1285;98768;-76
2022/12/03 14:15:15;;;;;;;103.10;47.40;;;;;;;2.10;77.57;101140.42;126943;1280;98761;-76
2022/12/03 14:18:17;;;;;;;97.80;43.90;;;;;;;2.04;77.46;101135.27;126572;1281;97982;-76
2022/12/03 14:21:20;;;;;;;104.70;46.30;;;;;;;2.01;77.80;101131.92;126677;1288;99048;-76
2022/12/03 14:24:23;;;;;;;112.80;47.40;;;;;;;1.94;77.81;101130.66;128025;1281;98026;-78
2022/12/03 14:27:26;;;;;;;107.10;45.10;;;;;;;1.89;77.78;101127.41;127158;1288;98395;-74